sensor_id;sensor_type;location;lat;lon;timestamp;P1;durP1;ratioP1;P2;durP2;ratioP2
5333;SDS011;2689;50.954;7.116;2023-04-01T00:01:24;2.00;;;1.27;;
5333;SDS011;2689;50.954;7.116;2023-04-01T00:03:51;2.87;;;1.50;;
5333;SDS011;2689;50.954;7.116;2023-04-01T00:06:19;2.53;;;1.20;;
5333;SDS011;2689;50.954;7.116;2023-04-01T00:08:45;2.90;;;1.27;;
5333;SDS011;2689;50.954;7.116;2023-04-01T00:11:12;1.73;;;0.90;;
5333;SDS011;2689;50.954;7.116;2023-04-01T00:13:40;2.60;;;1.20;;
5333;SDS011;2689;50.954;7.116;2023-04-01T00:16:07;1.87;;;0.97;;
5333;SDS011;2689;50.954;7.116;2023-04-01T00:18:35;2.80;;;1.13;;
5333;SDS011;2689;50.954;7.116;2023-04-01T00:21:02;1.60;;;1.00;;
5333;SDS011;2689;50.954;7.116;2023-04-01T00:23:29;1.23;;;0.80;;
5333;SDS011;2689;50.954;7.116;2023-04-01T00:25:58;2.90;;;1.70;;
5333;SDS011;2689;50.954;7.116;2023-04-01T00:28:26;2.70;;;1.20;;
5333;SDS011;2689;50.954;7.116;2023-04-01T00:30:52;2.53;;;1.10;;
5333;SDS011;2689;50.954;7.116;2023-04-01T00:33:19;1.40;;;1.03;;
5333;SDS011;2689;50.954;7.116;2023-04-01T00:35:47;1.50;;;1.00;;
5333;SDS011;2689;50.954;7.116;2023-04-01T00:38:14;1.37;;;0.97;;
5333;SDS011;2689;50.954;7.116;2023-04-01T00:40:42;1.33;;;0.80;;
5333;SDS011;2689;50.954;7.116;2023-04-01T00:43:11;2.80;;;1.27;;
5333;SDS011;2689;50.954;7.116;2023-04-01T00:45:40;1.17;;;0.77;;
5333;SDS011;2689;50.954;7.116;2023-04-01T00:48:10;3.23;;;1.00;;
5333;SDS011;2689;50.954;7.116;2023-04-01T00:50:39;2.07;;;1.40;;
5333;SDS011;2689;50.954;7.116;2023-04-01T00:53:10;1.80;;;1.00;;
5333;SDS011;2689;50.954;7.116;2023-04-01T00:55:39;2.40;;;1.03;;
5333;SDS011;2689;50.954;7.116;2023-04-01T00:58:13;3.07;;;1.30;;
5333;SDS011;2689;50.954;7.116;2023-04-01T01:00:42;1.97;;;1.07;;
5333;SDS011;2689;50.954;7.116;2023-04-01T01:03:11;1.53;;;0.77;;
5333;SDS011;2689;50.954;7.116;2023-04-01T01:05:42;2.37;;;1.27;;
5333;SDS011;2689;50.954;7.116;2023-04-01T01:08:23;3.53;;;0.97;;
5333;SDS011;2689;50.954;7.116;2023-04-01T01:11:02;1.50;;;1.10;;
5333;SDS011;2689;50.954;7.116;2023-04-01T01:13:32;3.90;;;1.27;;
5333;SDS011;2689;50.954;7.116;2023-04-01T01:16:10;2.60;;;0.80;;
5333;SDS011;2689;50.954;7.116;2023-04-01T01:18:46;1.27;;;0.90;;
5333;SDS011;2689;50.954;7.116;2023-04-01T01:21:28;1.73;;;1.07;;
5333;SDS011;2689;50.954;7.116;2023-04-01T01:24:11;2.23;;;0.90;;
5333;SDS011;2689;50.954;7.116;2023-04-01T01:26:47;1.80;;;0.80;;
5333;SDS011;2689;50.954;7.116;2023-04-01T01:35:36;2.57;;;1.00;;
5333;SDS011;2689;50.954;7.116;2023-04-01T01:38:06;1.43;;;0.90;;
5333;SDS011;2689;50.954;7.116;2023-04-01T01:40:37;1.30;;;0.80;;
5333;SDS011;2689;50.954;7.116;2023-04-01T01:43:10;3.30;;;1.03;;
5333;SDS011;2689;50.954;7.116;2023-04-01T01:45:40;1.30;;;0.90;;
5333;SDS011;2689;50.954;7.116;2023-04-01T01:48:12;1.53;;;1.00;;
5333;SDS011;2689;50.954;7.116;2023-04-01T01:50:41;1.77;;;0.90;;
5333;SDS011;2689;50.954;7.116;2023-04-01T01:53:11;3.10;;;0.90;;
5333;SDS011;2689;50.954;7.116;2023-04-01T01:55:40;1.40;;;0.90;;
5333;SDS011;2689;50.954;7.116;2023-04-01T01:58:09;1.53;;;0.90;;
5333;SDS011;2689;50.954;7.116;2023-04-01T02:00:41;1.20;;;0.90;;
5333;SDS011;2689;50.954;7.116;2023-04-01T02:03:12;1.83;;;1.00;;
5333;SDS011;2689;50.954;7.116;2023-04-01T02:05:42;1.40;;;1.00;;
5333;SDS011;2689;50.954;7.116;2023-04-01T02:08:11;1.47;;;0.70;;
5333;SDS011;2689;50.954;7.116;2023-04-01T02:10:42;1.90;;;0.70;;
5333;SDS011;2689;50.954;7.116;2023-04-01T02:13:13;1.30;;;0.70;;
5333;SDS011;2689;50.954;7.116;2023-04-01T02:15:45;1.20;;;0.80;;
5333;SDS011;2689;50.954;7.116;2023-04-01T02:18:14;1.03;;;0.80;;
5333;SDS011;2689;50.954;7.116;2023-04-01T02:20:46;1.27;;;0.80;;
5333;SDS011;2689;50.954;7.116;2023-04-01T02:23:13;1.13;;;0.80;;
5333;SDS011;2689;50.954;7.116;2023-04-01T02:25:40;1.93;;;1.00;;
5333;SDS011;2689;50.954;7.116;2023-04-01T02:28:09;2.20;;;1.10;;
5333;SDS011;2689;50.954;7.116;2023-04-01T02:30:38;1.97;;;1.03;;
5333;SDS011;2689;50.954;7.116;2023-04-01T02:33:08;1.20;;;0.83;;
5333;SDS011;2689;50.954;7.116;2023-04-01T02:35:35;2.20;;;1.20;;
5333;SDS011;2689;50.954;7.116;2023-04-01T02:38:04;1.67;;;1.00;;
5333;SDS011;2689;50.954;7.116;2023-04-01T02:40:40;3.03;;;0.83;;
5333;SDS011;2689;50.954;7.116;2023-04-01T02:43:12;4.13;;;1.10;;
5333;SDS011;2689;50.954;7.116;2023-04-01T02:45:39;3.57;;;2.67;;
5333;SDS011;2689;50.954;7.116;2023-04-01T02:48:06;4.20;;;1.10;;
5333;SDS011;2689;50.954;7.116;2023-04-01T02:50:33;1.70;;;1.00;;
5333;SDS011;2689;50.954;7.116;2023-04-01T02:52:59;2.40;;;0.97;;
5333;SDS011;2689;50.954;7.116;2023-04-01T02:55:29;1.90;;;0.90;;
5333;SDS011;2689;50.954;7.116;2023-04-01T02:57:56;1.67;;;0.87;;
5333;SDS011;2689;50.954;7.116;2023-04-01T03:00:23;5.00;;;1.10;;
5333;SDS011;2689;50.954;7.116;2023-04-01T03:02:50;2.80;;;0.97;;
5333;SDS011;2689;50.954;7.116;2023-04-01T03:05:17;1.20;;;0.87;;
5333;SDS011;2689;50.954;7.116;2023-04-01T03:07:43;1.50;;;0.90;;
5333;SDS011;2689;50.954;7.116;2023-04-01T03:10:10;1.70;;;0.90;;
5333;SDS011;2689;50.954;7.116;2023-04-01T03:12:38;2.03;;;0.90;;
5333;SDS011;2689;50.954;7.116;2023-04-01T03:15:05;1.93;;;1.00;;
5333;SDS011;2689;50.954;7.116;2023-04-01T03:17:32;1.90;;;0.90;;
5333;SDS011;2689;50.954;7.116;2023-04-01T03:19:59;1.10;;;0.80;;
5333;SDS011;2689;50.954;7.116;2023-04-01T03:22:29;1.77;;;0.70;;
5333;SDS011;2689;50.954;7.116;2023-04-01T03:24:56;2.23;;;0.80;;
5333;SDS011;2689;50.954;7.116;2023-04-01T03:27:23;2.10;;;0.97;;
5333;SDS011;2689;50.954;7.116;2023-04-01T03:29:51;1.10;;;0.90;;
5333;SDS011;2689;50.954;7.116;2023-04-01T03:32:18;1.53;;;0.90;;
5333;SDS011;2689;50.954;7.116;2023-04-01T03:34:45;2.30;;;0.83;;
5333;SDS011;2689;50.954;7.116;2023-04-01T03:37:11;1.10;;;0.80;;
5333;SDS011;2689;50.954;7.116;2023-04-01T03:39:39;1.33;;;0.90;;
5333;SDS011;2689;50.954;7.116;2023-04-01T03:42:05;1.10;;;0.90;;
5333;SDS011;2689;50.954;7.116;2023-04-01T03:44:32;2.83;;;0.90;;
5333;SDS011;2689;50.954;7.116;2023-04-01T03:47:01;7.23;;;0.80;;
5333;SDS011;2689;50.954;7.116;2023-04-01T03:49:27;2.07;;;1.10;;
5333;SDS011;2689;50.954;7.116;2023-04-01T03:51:54;2.20;;;1.07;;
5333;SDS011;2689;50.954;7.116;2023-04-01T03:54:21;1.53;;;0.90;;
5333;SDS011;2689;50.954;7.116;2023-04-01T03:56:48;1.40;;;1.00;;
5333;SDS011;2689;50.954;7.116;2023-04-01T03:59:15;1.43;;;0.90;;
5333;SDS011;2689;50.954;7.116;2023-04-01T04:01:42;1.93;;;0.97;;
5333;SDS011;2689;50.954;7.116;2023-04-01T04:04:11;2.53;;;1.00;;
5333;SDS011;2689;50.954;7.116;2023-04-01T04:06:39;2.23;;;1.00;;
5333;SDS011;2689;50.954;7.116;2023-04-01T04:09:06;1.43;;;0.80;;
5333;SDS011;2689;50.954;7.116;2023-04-01T04:11:33;1.63;;;0.90;;
5333;SDS011;2689;50.954;7.116;2023-04-01T04:13:59;1.70;;;0.90;;
5333;SDS011;2689;50.954;7.116;2023-04-01T04:16:27;2.43;;;0.90;;
5333;SDS011;2689;50.954;7.116;2023-04-01T04:18:53;1.50;;;0.90;;
5333;SDS011;2689;50.954;7.116;2023-04-01T04:21:21;1.33;;;0.87;;
5333;SDS011;2689;50.954;7.116;2023-04-01T04:23:48;1.80;;;1.03;;
5333;SDS011;2689;50.954;7.116;2023-04-01T04:26:15;1.30;;;0.77;;
5333;SDS011;2689;50.954;7.116;2023-04-01T04:28:42;4.27;;;0.80;;
5333;SDS011;2689;50.954;7.116;2023-04-01T04:31:09;1.67;;;0.90;;
5333;SDS011;2689;50.954;7.116;2023-04-01T04:33:35;1.03;;;0.73;;
5333;SDS011;2689;50.954;7.116;2023-04-01T04:36:02;1.23;;;0.80;;
5333;SDS011;2689;50.954;7.116;2023-04-01T04:38:31;1.43;;;0.80;;
5333;SDS011;2689;50.954;7.116;2023-04-01T04:40:58;2.30;;;1.00;;
5333;SDS011;2689;50.954;7.116;2023-04-01T04:43:25;1.60;;;0.80;;
5333;SDS011;2689;50.954;7.116;2023-04-01T04:45:51;2.27;;;1.00;;
5333;SDS011;2689;50.954;7.116;2023-04-01T04:48:18;1.83;;;0.90;;
5333;SDS011;2689;50.954;7.116;2023-04-01T04:50:45;1.83;;;1.20;;
5333;SDS011;2689;50.954;7.116;2023-04-01T04:53:14;1.20;;;0.83;;
5333;SDS011;2689;50.954;7.116;2023-04-01T04:55:46;1.57;;;1.17;;
5333;SDS011;2689;50.954;7.116;2023-04-01T04:58:14;1.30;;;0.83;;
5333;SDS011;2689;50.954;7.116;2023-04-01T05:00:41;1.70;;;0.90;;
5333;SDS011;2689;50.954;7.116;2023-04-01T05:03:08;1.40;;;1.10;;
5333;SDS011;2689;50.954;7.116;2023-04-01T05:05:35;1.50;;;1.00;;
5333;SDS011;2689;50.954;7.116;2023-04-01T05:08:03;1.40;;;0.80;;
5333;SDS011;2689;50.954;7.116;2023-04-01T05:10:30;1.50;;;0.80;;
5333;SDS011;2689;50.954;7.116;2023-04-01T05:12:58;1.10;;;0.70;;
5333;SDS011;2689;50.954;7.116;2023-04-01T05:15:25;1.40;;;0.70;;
5333;SDS011;2689;50.954;7.116;2023-04-01T05:17:51;1.40;;;0.80;;
5333;SDS011;2689;50.954;7.116;2023-04-01T05:20:18;1.20;;;0.90;;
5333;SDS011;2689;50.954;7.116;2023-04-01T05:22:45;1.33;;;0.90;;
5333;SDS011;2689;50.954;7.116;2023-04-01T05:25:12;1.63;;;1.00;;
5333;SDS011;2689;50.954;7.116;2023-04-01T05:27:39;1.43;;;0.80;;
5333;SDS011;2689;50.954;7.116;2023-04-01T05:30:08;1.10;;;0.80;;
5333;SDS011;2689;50.954;7.116;2023-04-01T05:32:35;1.37;;;0.83;;
5333;SDS011;2689;50.954;7.116;2023-04-01T05:35:02;1.20;;;0.90;;
5333;SDS011;2689;50.954;7.116;2023-04-01T05:37:30;3.83;;;1.60;;
5333;SDS011;2689;50.954;7.116;2023-04-01T05:39:56;2.20;;;1.00;;
5333;SDS011;2689;50.954;7.116;2023-04-01T05:42:24;1.30;;;0.90;;
5333;SDS011;2689;50.954;7.116;2023-04-01T05:44:51;1.30;;;0.90;;
5333;SDS011;2689;50.954;7.116;2023-04-01T05:47:19;3.13;;;1.00;;
5333;SDS011;2689;50.954;7.116;2023-04-01T05:49:45;2.30;;;0.90;;
5333;SDS011;2689;50.954;7.116;2023-04-01T05:52:12;1.20;;;0.90;;
5333;SDS011;2689;50.954;7.116;2023-04-01T05:54:39;1.40;;;1.00;;
5333;SDS011;2689;50.954;7.116;2023-04-01T05:57:06;2.10;;;1.00;;
5333;SDS011;2689;50.954;7.116;2023-04-01T05:59:33;1.70;;;1.03;;
5333;SDS011;2689;50.954;7.116;2023-04-01T06:02:00;1.87;;;1.20;;
5333;SDS011;2689;50.954;7.116;2023-04-01T06:04:31;1.90;;;0.97;;
5333;SDS011;2689;50.954;7.116;2023-04-01T06:07:05;2.70;;;1.23;;
5333;SDS011;2689;50.954;7.116;2023-04-01T06:09:36;3.70;;;1.37;;
5333;SDS011;2689;50.954;7.116;2023-04-01T06:12:15;3.80;;;1.30;;
5333;SDS011;2689;50.954;7.116;2023-04-01T06:15:06;2.50;;;1.50;;
5333;SDS011;2689;50.954;7.116;2023-04-01T06:17:49;3.23;;;1.53;;
5333;SDS011;2689;50.954;7.116;2023-04-01T06:20:29;2.50;;;1.67;;
5333;SDS011;2689;50.954;7.116;2023-04-01T06:23:18;3.73;;;1.60;;
5333;SDS011;2689;50.954;7.116;2023-04-01T06:26:01;4.80;;;1.50;;
5333;SDS011;2689;50.954;7.116;2023-04-01T06:34:45;2.97;;;2.13;;
5333;SDS011;2689;50.954;7.116;2023-04-01T06:37:57;2.13;;;1.40;;
5333;SDS011;2689;50.954;7.116;2023-04-01T06:43:35;2.57;;;1.53;;
5333;SDS011;2689;50.954;7.116;2023-04-01T06:46:13;4.33;;;1.50;;
5333;SDS011;2689;50.954;7.116;2023-04-01T06:48:54;3.23;;;1.40;;
5333;SDS011;2689;50.954;7.116;2023-04-01T06:51:33;4.23;;;2.33;;
5333;SDS011;2689;50.954;7.116;2023-04-01T06:54:10;3.43;;;1.60;;
5333;SDS011;2689;50.954;7.116;2023-04-01T06:56:40;3.77;;;2.10;;
5333;SDS011;2689;50.954;7.116;2023-04-01T06:59:12;1.90;;;1.53;;
5333;SDS011;2689;50.954;7.116;2023-04-01T07:01:44;2.43;;;1.97;;
5333;SDS011;2689;50.954;7.116;2023-04-01T07:04:16;7.13;;;1.90;;
5333;SDS011;2689;50.954;7.116;2023-04-01T07:06:47;4.07;;;1.90;;
5333;SDS011;2689;50.954;7.116;2023-04-01T07:09:19;2.07;;;1.50;;
5333;SDS011;2689;50.954;7.116;2023-04-01T07:11:49;2.90;;;1.67;;
5333;SDS011;2689;50.954;7.116;2023-04-01T07:14:19;2.20;;;1.70;;
5333;SDS011;2689;50.954;7.116;2023-04-01T07:16:52;2.60;;;2.03;;
5333;SDS011;2689;50.954;7.116;2023-04-01T07:19:26;2.37;;;1.83;;
5333;SDS011;2689;50.954;7.116;2023-04-01T07:22:00;5.23;;;2.27;;
5333;SDS011;2689;50.954;7.116;2023-04-01T07:24:33;3.33;;;2.23;;
5333;SDS011;2689;50.954;7.116;2023-04-01T07:27:03;2.83;;;2.10;;
5333;SDS011;2689;50.954;7.116;2023-04-01T07:29:34;5.30;;;2.17;;
5333;SDS011;2689;50.954;7.116;2023-04-01T07:32:07;4.30;;;2.20;;
5333;SDS011;2689;50.954;7.116;2023-04-01T07:34:44;5.00;;;2.67;;
5333;SDS011;2689;50.954;7.116;2023-04-01T07:37:30;5.03;;;2.33;;
5333;SDS011;2689;50.954;7.116;2023-04-01T07:40:09;3.57;;;1.80;;
5333;SDS011;2689;50.954;7.116;2023-04-01T07:42:51;2.30;;;2.07;;
5333;SDS011;2689;50.954;7.116;2023-04-01T07:45:27;5.67;;;2.40;;
5333;SDS011;2689;50.954;7.116;2023-04-01T07:48:01;5.13;;;1.97;;
5333;SDS011;2689;50.954;7.116;2023-04-01T07:50:41;4.43;;;2.07;;
5333;SDS011;2689;50.954;7.116;2023-04-01T07:53:14;4.00;;;2.20;;
5333;SDS011;2689;50.954;7.116;2023-04-01T07:55:46;4.17;;;2.00;;
5333;SDS011;2689;50.954;7.116;2023-04-01T07:58:22;7.83;;;2.50;;
5333;SDS011;2689;50.954;7.116;2023-04-01T08:00:57;5.30;;;3.10;;
5333;SDS011;2689;50.954;7.116;2023-04-01T08:03:33;3.70;;;3.30;;
5333;SDS011;2689;50.954;7.116;2023-04-01T08:06:09;4.07;;;2.43;;
5333;SDS011;2689;50.954;7.116;2023-04-01T08:08:43;3.10;;;2.20;;
5333;SDS011;2689;50.954;7.116;2023-04-01T08:11:25;2.33;;;1.80;;
5333;SDS011;2689;50.954;7.116;2023-04-01T08:14:02;3.20;;;2.80;;
5333;SDS011;2689;50.954;7.116;2023-04-01T08:16:37;4.30;;;2.30;;
5333;SDS011;2689;50.954;7.116;2023-04-01T08:19:14;3.37;;;1.87;;
5333;SDS011;2689;50.954;7.116;2023-04-01T08:21:48;2.20;;;2.00;;
5333;SDS011;2689;50.954;7.116;2023-04-01T08:24:19;2.67;;;2.07;;
5333;SDS011;2689;50.954;7.116;2023-04-01T08:26:53;4.90;;;4.47;;
5333;SDS011;2689;50.954;7.116;2023-04-01T08:29:23;2.83;;;1.80;;
5333;SDS011;2689;50.954;7.116;2023-04-01T08:31:57;3.20;;;2.10;;
5333;SDS011;2689;50.954;7.116;2023-04-01T08:34:28;2.83;;;2.10;;
5333;SDS011;2689;50.954;7.116;2023-04-01T08:37:01;2.13;;;1.93;;
5333;SDS011;2689;50.954;7.116;2023-04-01T08:39:31;2.30;;;1.90;;
5333;SDS011;2689;50.954;7.116;2023-04-01T08:42:07;4.50;;;2.13;;
5333;SDS011;2689;50.954;7.116;2023-04-01T08:45:01;2.23;;;1.90;;
5333;SDS011;2689;50.954;7.116;2023-04-01T08:47:38;2.20;;;1.83;;
5333;SDS011;2689;50.954;7.116;2023-04-01T08:53:21;2.90;;;2.20;;
5333;SDS011;2689;50.954;7.116;2023-04-01T08:56:03;4.27;;;2.20;;
5333;SDS011;2689;50.954;7.116;2023-04-01T08:58:51;2.60;;;2.07;;
5333;SDS011;2689;50.954;7.116;2023-04-01T09:01:38;4.73;;;1.90;;
5333;SDS011;2689;50.954;7.116;2023-04-01T09:04:25;1.90;;;1.63;;
5333;SDS011;2689;50.954;7.116;2023-04-01T09:07:12;2.37;;;1.90;;
5333;SDS011;2689;50.954;7.116;2023-04-01T09:10:00;3.73;;;1.93;;
5333;SDS011;2689;50.954;7.116;2023-04-01T09:12:52;2.03;;;1.40;;
5333;SDS011;2689;50.954;7.116;2023-04-01T09:15:45;3.10;;;1.67;;
5333;SDS011;2689;50.954;7.116;2023-04-01T09:18:40;4.53;;;1.10;;
5333;SDS011;2689;50.954;7.116;2023-04-01T09:24:41;1.40;;;1.20;;
5333;SDS011;2689;50.954;7.116;2023-04-01T09:27:28;1.40;;;1.20;;
5333;SDS011;2689;50.954;7.116;2023-04-01T09:30:20;2.30;;;1.90;;
5333;SDS011;2689;50.954;7.116;2023-04-01T09:33:15;3.70;;;1.60;;
5333;SDS011;2689;50.954;7.116;2023-04-01T09:36:01;2.27;;;1.60;;
5333;SDS011;2689;50.954;7.116;2023-04-01T09:38:33;1.63;;;1.23;;
5333;SDS011;2689;50.954;7.116;2023-04-01T09:41:11;1.30;;;1.10;;
5333;SDS011;2689;50.954;7.116;2023-04-01T09:43:50;1.97;;;1.30;;
5333;SDS011;2689;50.954;7.116;2023-04-01T09:46:30;2.30;;;1.43;;
5333;SDS011;2689;50.954;7.116;2023-04-01T09:52:10;8.50;;;5.93;;
5333;SDS011;2689;50.954;7.116;2023-04-01T09:54:55;1.40;;;1.27;;
5333;SDS011;2689;50.954;7.116;2023-04-01T09:57:40;1.33;;;1.13;;
5333;SDS011;2689;50.954;7.116;2023-04-01T10:00:39;3.10;;;1.97;;
5333;SDS011;2689;50.954;7.116;2023-04-01T10:03:30;2.43;;;1.50;;
5333;SDS011;2689;50.954;7.116;2023-04-01T10:06:43;1.70;;;1.60;;
5333;SDS011;2689;50.954;7.116;2023-04-01T10:09:38;1.80;;;1.57;;
5333;SDS011;2689;50.954;7.116;2023-04-01T10:12:49;1.83;;;1.63;;
5333;SDS011;2689;50.954;7.116;2023-04-01T10:16:10;2.47;;;1.90;;
5333;SDS011;2689;50.954;7.116;2023-04-01T10:19:03;2.40;;;1.73;;
5333;SDS011;2689;50.954;7.116;2023-04-01T10:22:01;3.57;;;2.40;;
5333;SDS011;2689;50.954;7.116;2023-04-01T10:24:53;2.83;;;2.30;;
5333;SDS011;2689;50.954;7.116;2023-04-01T10:27:38;2.90;;;2.10;;
5333;SDS011;2689;50.954;7.116;2023-04-01T10:33:54;2.27;;;1.90;;
5333;SDS011;2689;50.954;7.116;2023-04-01T10:36:52;2.90;;;1.87;;
5333;SDS011;2689;50.954;7.116;2023-04-01T10:39:35;3.07;;;2.00;;
5333;SDS011;2689;50.954;7.116;2023-04-01T10:49:00;2.53;;;2.30;;
5333;SDS011;2689;50.954;7.116;2023-04-01T10:55:10;2.40;;;2.20;;
5333;SDS011;2689;50.954;7.116;2023-04-01T10:58:03;1.87;;;1.73;;
5333;SDS011;2689;50.954;7.116;2023-04-01T11:01:02;2.17;;;1.60;;
5333;SDS011;2689;50.954;7.116;2023-04-01T11:07:20;3.97;;;2.90;;
5333;SDS011;2689;50.954;7.116;2023-04-01T11:19:29;1.70;;;1.33;;
5333;SDS011;2689;50.954;7.116;2023-04-01T11:25:17;3.13;;;2.70;;
5333;SDS011;2689;50.954;7.116;2023-04-01T11:28:17;1.93;;;1.70;;
5333;SDS011;2689;50.954;7.116;2023-04-01T11:31:15;2.50;;;2.23;;
5333;SDS011;2689;50.954;7.116;2023-04-01T11:34:18;1.97;;;1.67;;
5333;SDS011;2689;50.954;7.116;2023-04-01T11:37:01;2.30;;;2.10;;
5333;SDS011;2689;50.954;7.116;2023-04-01T11:39:35;2.23;;;2.03;;
5333;SDS011;2689;50.954;7.116;2023-04-01T11:42:11;2.70;;;1.90;;
5333;SDS011;2689;50.954;7.116;2023-04-01T11:44:48;2.67;;;2.30;;
5333;SDS011;2689;50.954;7.116;2023-04-01T11:47:27;2.87;;;2.50;;
5333;SDS011;2689;50.954;7.116;2023-04-01T11:50:15;2.80;;;2.60;;
5333;SDS011;2689;50.954;7.116;2023-04-01T11:55:47;3.53;;;2.50;;
5333;SDS011;2689;50.954;7.116;2023-04-01T12:01:20;2.60;;;1.93;;
5333;SDS011;2689;50.954;7.116;2023-04-01T12:07:21;2.17;;;1.97;;
5333;SDS011;2689;50.954;7.116;2023-04-01T12:09:58;2.53;;;2.30;;
5333;SDS011;2689;50.954;7.116;2023-04-01T12:12:32;2.67;;;2.20;;
5333;SDS011;2689;50.954;7.116;2023-04-01T12:15:12;4.37;;;1.70;;
5333;SDS011;2689;50.954;7.116;2023-04-01T12:17:48;1.83;;;1.70;;
5333;SDS011;2689;50.954;7.116;2023-04-01T12:20:36;3.40;;;2.43;;
5333;SDS011;2689;50.954;7.116;2023-04-01T12:23:12;2.20;;;2.00;;
5333;SDS011;2689;50.954;7.116;2023-04-01T12:25:55;1.90;;;1.70;;
5333;SDS011;2689;50.954;7.116;2023-04-01T12:28:41;2.13;;;1.93;;
5333;SDS011;2689;50.954;7.116;2023-04-01T12:31:22;2.10;;;1.80;;
5333;SDS011;2689;50.954;7.116;2023-04-01T12:34:15;2.37;;;2.17;;
5333;SDS011;2689;50.954;7.116;2023-04-01T12:36:58;1.80;;;1.67;;
5333;SDS011;2689;50.954;7.116;2023-04-01T12:39:36;1.90;;;1.70;;
5333;SDS011;2689;50.954;7.116;2023-04-01T12:42:19;2.87;;;1.60;;
5333;SDS011;2689;50.954;7.116;2023-04-01T12:48:17;1.97;;;1.60;;
5333;SDS011;2689;50.954;7.116;2023-04-01T12:54:18;4.60;;;2.83;;
5333;SDS011;2689;50.954;7.116;2023-04-01T12:57:18;2.57;;;1.70;;
5333;SDS011;2689;50.954;7.116;2023-04-01T13:00:03;2.93;;;1.93;;
5333;SDS011;2689;50.954;7.116;2023-04-01T13:02:42;3.13;;;2.43;;
5333;SDS011;2689;50.954;7.116;2023-04-01T13:05:24;1.70;;;1.53;;
5333;SDS011;2689;50.954;7.116;2023-04-01T13:08:08;1.83;;;1.57;;
5333;SDS011;2689;50.954;7.116;2023-04-01T13:10:52;2.33;;;1.90;;
5333;SDS011;2689;50.954;7.116;2023-04-01T13:13:41;3.00;;;1.83;;
5333;SDS011;2689;50.954;7.116;2023-04-01T13:16:34;1.60;;;1.30;;
5333;SDS011;2689;50.954;7.116;2023-04-01T13:19:06;2.20;;;1.60;;
5333;SDS011;2689;50.954;7.116;2023-04-01T13:21:38;2.50;;;1.77;;
5333;SDS011;2689;50.954;7.116;2023-04-01T13:24:21;2.03;;;1.83;;
5333;SDS011;2689;50.954;7.116;2023-04-01T13:26:58;1.97;;;1.70;;
5333;SDS011;2689;50.954;7.116;2023-04-01T13:29:32;1.73;;;1.63;;
5333;SDS011;2689;50.954;7.116;2023-04-01T13:32:09;2.30;;;2.10;;
5333;SDS011;2689;50.954;7.116;2023-04-01T13:34:48;2.37;;;2.17;;
5333;SDS011;2689;50.954;7.116;2023-04-01T13:37:28;3.73;;;3.00;;
5333;SDS011;2689;50.954;7.116;2023-04-01T13:40:19;1.80;;;1.70;;
5333;SDS011;2689;50.954;7.116;2023-04-01T13:42:53;2.87;;;2.40;;
5333;SDS011;2689;50.954;7.116;2023-04-01T13:45:29;2.30;;;2.10;;
5333;SDS011;2689;50.954;7.116;2023-04-01T13:48:11;1.53;;;1.43;;
5333;SDS011;2689;50.954;7.116;2023-04-01T13:50:54;1.90;;;1.70;;
5333;SDS011;2689;50.954;7.116;2023-04-01T13:53:44;2.47;;;1.80;;
5333;SDS011;2689;50.954;7.116;2023-04-01T13:56:41;2.20;;;2.00;;
5333;SDS011;2689;50.954;7.116;2023-04-01T13:59:31;2.50;;;2.30;;
5333;SDS011;2689;50.954;7.116;2023-04-01T14:02:18;2.80;;;2.50;;
5333;SDS011;2689;50.954;7.116;2023-04-01T14:05:06;2.67;;;2.20;;
5333;SDS011;2689;50.954;7.116;2023-04-01T14:07:46;3.43;;;2.70;;
5333;SDS011;2689;50.954;7.116;2023-04-01T14:10:23;2.40;;;2.13;;
5333;SDS011;2689;50.954;7.116;2023-04-01T14:12:58;2.73;;;2.53;;
5333;SDS011;2689;50.954;7.116;2023-04-01T14:15:36;2.57;;;2.37;;
5333;SDS011;2689;50.954;7.116;2023-04-01T14:18:30;2.57;;;2.37;;
5333;SDS011;2689;50.954;7.116;2023-04-01T14:21:07;3.60;;;3.30;;
5333;SDS011;2689;50.954;7.116;2023-04-01T14:23:50;4.50;;;3.20;;
5333;SDS011;2689;50.954;7.116;2023-04-01T14:26:30;3.43;;;3.10;;
5333;SDS011;2689;50.954;7.116;2023-04-01T14:29:14;5.73;;;3.27;;
5333;SDS011;2689;50.954;7.116;2023-04-01T14:31:52;5.00;;;3.60;;
5333;SDS011;2689;50.954;7.116;2023-04-01T14:34:33;3.90;;;3.60;;
5333;SDS011;2689;50.954;7.116;2023-04-01T14:37:13;5.60;;;4.50;;
5333;SDS011;2689;50.954;7.116;2023-04-01T14:48:32;6.50;;;3.53;;
5333;SDS011;2689;50.954;7.116;2023-04-01T14:51:08;5.13;;;3.73;;
5333;SDS011;2689;50.954;7.116;2023-04-01T14:53:41;4.30;;;3.90;;
5333;SDS011;2689;50.954;7.116;2023-04-01T14:59:06;7.00;;;4.70;;
5333;SDS011;2689;50.954;7.116;2023-04-01T15:01:37;4.77;;;4.00;;
5333;SDS011;2689;50.954;7.116;2023-04-01T15:04:15;5.17;;;3.90;;
5333;SDS011;2689;50.954;7.116;2023-04-01T15:07:04;3.30;;;3.00;;
5333;SDS011;2689;50.954;7.116;2023-04-01T15:09:46;4.33;;;3.20;;
5333;SDS011;2689;50.954;7.116;2023-04-01T15:12:22;4.10;;;3.50;;
5333;SDS011;2689;50.954;7.116;2023-04-01T15:14:57;5.40;;;3.60;;
5333;SDS011;2689;50.954;7.116;2023-04-01T15:17:53;7.00;;;3.93;;
5333;SDS011;2689;50.954;7.116;2023-04-01T15:20:38;4.77;;;3.87;;
5333;SDS011;2689;50.954;7.116;2023-04-01T15:23:29;3.60;;;3.30;;
5333;SDS011;2689;50.954;7.116;2023-04-01T15:26:11;4.30;;;3.40;;
5333;SDS011;2689;50.954;7.116;2023-04-01T15:28:49;3.97;;;3.67;;
5333;SDS011;2689;50.954;7.116;2023-04-01T15:31:27;7.67;;;4.00;;
5333;SDS011;2689;50.954;7.116;2023-04-01T15:34:03;4.60;;;3.73;;
5333;SDS011;2689;50.954;7.116;2023-04-01T15:36:49;6.50;;;3.37;;
5333;SDS011;2689;50.954;7.116;2023-04-01T15:39:23;3.40;;;3.10;;
5333;SDS011;2689;50.954;7.116;2023-04-01T15:42:01;3.20;;;2.90;;
5333;SDS011;2689;50.954;7.116;2023-04-01T15:44:44;4.50;;;4.10;;
5333;SDS011;2689;50.954;7.116;2023-04-01T15:47:27;3.87;;;3.37;;
5333;SDS011;2689;50.954;7.116;2023-04-01T15:50:04;3.73;;;2.97;;
5333;SDS011;2689;50.954;7.116;2023-04-01T15:53:00;3.60;;;3.30;;
5333;SDS011;2689;50.954;7.116;2023-04-01T15:55:38;4.13;;;3.73;;
5333;SDS011;2689;50.954;7.116;2023-04-01T15:58:32;5.30;;;4.50;;
5333;SDS011;2689;50.954;7.116;2023-04-01T16:01:14;6.43;;;5.20;;
5333;SDS011;2689;50.954;7.116;2023-04-01T16:03:49;5.10;;;4.60;;
5333;SDS011;2689;50.954;7.116;2023-04-01T16:06:24;4.63;;;3.60;;
5333;SDS011;2689;50.954;7.116;2023-04-01T16:09:09;5.03;;;4.20;;
5333;SDS011;2689;50.954;7.116;2023-04-01T16:11:56;5.70;;;3.93;;
5333;SDS011;2689;50.954;7.116;2023-04-01T16:14:31;5.10;;;4.13;;
5333;SDS011;2689;50.954;7.116;2023-04-01T16:17:17;4.90;;;4.33;;
5333;SDS011;2689;50.954;7.116;2023-04-01T16:19:54;12.10;;;9.23;;
5333;SDS011;2689;50.954;7.116;2023-04-01T16:22:25;4.93;;;4.43;;
5333;SDS011;2689;50.954;7.116;2023-04-01T16:24:59;4.73;;;4.00;;
5333;SDS011;2689;50.954;7.116;2023-04-01T16:27:35;5.27;;;4.77;;
5333;SDS011;2689;50.954;7.116;2023-04-01T16:30:16;4.43;;;4.00;;
5333;SDS011;2689;50.954;7.116;2023-04-01T16:32:59;5.83;;;5.23;;
5333;SDS011;2689;50.954;7.116;2023-04-01T16:35:31;4.27;;;3.87;;
5333;SDS011;2689;50.954;7.116;2023-04-01T16:38:09;9.97;;;7.90;;
5333;SDS011;2689;50.954;7.116;2023-04-01T16:40:44;8.70;;;6.50;;
5333;SDS011;2689;50.954;7.116;2023-04-01T16:43:20;10.97;;;8.00;;
5333;SDS011;2689;50.954;7.116;2023-04-01T16:45:54;10.70;;;8.23;;
5333;SDS011;2689;50.954;7.116;2023-04-01T16:48:35;5.27;;;4.77;;
5333;SDS011;2689;50.954;7.116;2023-04-01T16:51:18;6.60;;;5.90;;
5333;SDS011;2689;50.954;7.116;2023-04-01T16:53:47;5.97;;;5.37;;
5333;SDS011;2689;50.954;7.116;2023-04-01T16:56:18;7.47;;;5.80;;
5333;SDS011;2689;50.954;7.116;2023-04-01T16:58:58;5.77;;;5.13;;
5333;SDS011;2689;50.954;7.116;2023-04-01T17:01:43;5.33;;;3.53;;
5333;SDS011;2689;50.954;7.116;2023-04-01T17:04:17;6.37;;;5.77;;
5333;SDS011;2689;50.954;7.116;2023-04-01T17:06:51;4.90;;;3.80;;
5333;SDS011;2689;50.954;7.116;2023-04-01T17:09:35;4.30;;;3.90;;
5333;SDS011;2689;50.954;7.116;2023-04-01T17:12:13;5.00;;;4.50;;
5333;SDS011;2689;50.954;7.116;2023-04-01T17:14:50;5.10;;;4.47;;
5333;SDS011;2689;50.954;7.116;2023-04-01T17:17:31;8.13;;;4.63;;
5333;SDS011;2689;50.954;7.116;2023-04-01T17:20:07;6.87;;;5.03;;
5333;SDS011;2689;50.954;7.116;2023-04-01T17:22:43;6.17;;;4.60;;
5333;SDS011;2689;50.954;7.116;2023-04-01T17:28:10;7.17;;;4.80;;
5333;SDS011;2689;50.954;7.116;2023-04-01T17:30:53;5.93;;;5.17;;
5333;SDS011;2689;50.954;7.116;2023-04-01T17:33:31;8.30;;;6.30;;
5333;SDS011;2689;50.954;7.116;2023-04-01T17:36:15;4.53;;;4.13;;